sensor_id;sensor_type;location;lat;lon;timestamp;P1;durP1;ratioP1;P2;durP2;ratioP2
17347;SDS011;8791;50.876;4.342;2023-07-20T00:00:56;6.28;;;2.60;;
17347;SDS011;8791;50.876;4.342;2023-07-20T00:03:23;7.70;;;2.70;;
17347;SDS011;8791;50.876;4.342;2023-07-20T00:05:50;8.70;;;2.75;;
17347;SDS011;8791;50.876;4.342;2023-07-20T00:08:17;6.45;;;2.80;;
17347;SDS011;8791;50.876;4.342;2023-07-20T00:10:46;7.40;;;2.80;;
17347;SDS011;8791;50.876;4.342;2023-07-20T00:13:13;8.57;;;2.60;;
17347;SDS011;8791;50.876;4.342;2023-07-20T00:15:40;11.02;;;2.95;;
17347;SDS011;8791;50.876;4.342;2023-07-20T00:18:08;5.28;;;2.83;;
17347;SDS011;8791;50.876;4.342;2023-07-20T00:20:34;7.75;;;2.80;;
17347;SDS011;8791;50.876;4.342;2023-07-20T00:23:01;6.65;;;2.92;;
17347;SDS011;8791;50.876;4.342;2023-07-20T00:25:28;9.38;;;2.63;;
17347;SDS011;8791;50.876;4.342;2023-07-20T00:27:59;12.35;;;3.22;;
17347;SDS011;8791;50.876;4.342;2023-07-20T00:30:31;7.63;;;3.20;;
17347;SDS011;8791;50.876;4.342;2023-07-20T00:33:04;11.45;;;3.13;;
17347;SDS011;8791;50.876;4.342;2023-07-20T00:35:31;9.48;;;2.88;;
17347;SDS011;8791;50.876;4.342;2023-07-20T00:37:58;6.38;;;3.03;;
17347;SDS011;8791;50.876;4.342;2023-07-20T00:40:25;8.30;;;2.95;;
17347;SDS011;8791;50.876;4.342;2023-07-20T00:42:52;6.95;;;2.83;;
17347;SDS011;8791;50.876;4.342;2023-07-20T00:45:20;6.00;;;2.95;;
17347;SDS011;8791;50.876;4.342;2023-07-20T00:47:47;8.45;;;3.22;;
17347;SDS011;8791;50.876;4.342;2023-07-20T00:50:14;6.85;;;3.25;;
17347;SDS011;8791;50.876;4.342;2023-07-20T00:52:41;7.18;;;3.33;;
17347;SDS011;8791;50.876;4.342;2023-07-20T00:55:08;5.82;;;3.17;;
17347;SDS011;8791;50.876;4.342;2023-07-20T00:57:36;6.35;;;3.10;;
17347;SDS011;8791;50.876;4.342;2023-07-20T01:00:04;6.35;;;3.22;;
17347;SDS011;8791;50.876;4.342;2023-07-20T01:02:34;4.00;;;2.97;;
17347;SDS011;8791;50.876;4.342;2023-07-20T01:05:01;6.28;;;3.03;;
17347;SDS011;8791;50.876;4.342;2023-07-20T01:07:31;10.18;;;3.38;;
17347;SDS011;8791;50.876;4.342;2023-07-20T01:10:02;8.15;;;2.92;;
17347;SDS011;8791;50.876;4.342;2023-07-20T01:12:38;7.95;;;3.20;;
17347;SDS011;8791;50.876;4.342;2023-07-20T01:15:08;6.75;;;3.30;;
17347;SDS011;8791;50.876;4.342;2023-07-20T01:17:36;9.52;;;3.20;;
17347;SDS011;8791;50.876;4.342;2023-07-20T01:20:03;5.43;;;2.95;;
17347;SDS011;8791;50.876;4.342;2023-07-20T01:22:37;7.55;;;3.67;;
17347;SDS011;8791;50.876;4.342;2023-07-20T01:25:31;7.68;;;3.17;;
17347;SDS011;8791;50.876;4.342;2023-07-20T01:28:19;10.27;;;3.55;;
17347;SDS011;8791;50.876;4.342;2023-07-20T01:31:20;6.80;;;3.20;;
17347;SDS011;8791;50.876;4.342;2023-07-20T01:33:49;6.68;;;3.35;;
17347;SDS011;8791;50.876;4.342;2023-07-20T01:36:18;10.55;;;3.28;;
17347;SDS011;8791;50.876;4.342;2023-07-20T01:38:46;7.53;;;3.72;;
17347;SDS011;8791;50.876;4.342;2023-07-20T01:41:13;7.75;;;3.67;;
17347;SDS011;8791;50.876;4.342;2023-07-20T01:43:42;6.65;;;3.65;;
17347;SDS011;8791;50.876;4.342;2023-07-20T01:46:09;11.73;;;4.50;;
17347;SDS011;8791;50.876;4.342;2023-07-20T01:48:37;13.35;;;4.10;;
17347;SDS011;8791;50.876;4.342;2023-07-20T01:51:04;12.52;;;4.35;;
17347;SDS011;8791;50.876;4.342;2023-07-20T01:53:31;12.60;;;4.68;;
17347;SDS011;8791;50.876;4.342;2023-07-20T01:55:58;13.60;;;4.32;;
17347;SDS011;8791;50.876;4.342;2023-07-20T01:58:24;12.15;;;4.40;;
17347;SDS011;8791;50.876;4.342;2023-07-20T02:00:51;11.68;;;4.47;;
17347;SDS011;8791;50.876;4.342;2023-07-20T02:03:18;15.23;;;5.70;;
17347;SDS011;8791;50.876;4.342;2023-07-20T02:05:48;12.68;;;4.70;;
17347;SDS011;8791;50.876;4.342;2023-07-20T02:08:15;10.50;;;5.13;;
17347;SDS011;8791;50.876;4.342;2023-07-20T02:10:44;15.52;;;4.78;;
17347;SDS011;8791;50.876;4.342;2023-07-20T02:13:11;12.00;;;5.80;;
17347;SDS011;8791;50.876;4.342;2023-07-20T02:15:38;13.80;;;5.07;;
17347;SDS011;8791;50.876;4.342;2023-07-20T02:18:05;11.05;;;4.88;;
17347;SDS011;8791;50.876;4.342;2023-07-20T02:20:32;12.77;;;5.50;;
17347;SDS011;8791;50.876;4.342;2023-07-20T02:23:00;10.60;;;5.53;;
17347;SDS011;8791;50.876;4.342;2023-07-20T02:25:27;13.38;;;6.20;;
17347;SDS011;8791;50.876;4.342;2023-07-20T02:27:55;18.75;;;5.65;;
17347;SDS011;8791;50.876;4.342;2023-07-20T02:30:23;15.93;;;6.07;;
17347;SDS011;8791;50.876;4.342;2023-07-20T02:32:50;15.70;;;5.22;;
17347;SDS011;8791;50.876;4.342;2023-07-20T02:35:17;10.30;;;5.28;;
17347;SDS011;8791;50.876;4.342;2023-07-20T02:37:44;10.02;;;6.13;;
17347;SDS011;8791;50.876;4.342;2023-07-20T02:40:12;11.98;;;5.75;;
17347;SDS011;8791;50.876;4.342;2023-07-20T02:42:39;14.98;;;5.82;;
17347;SDS011;8791;50.876;4.342;2023-07-20T02:45:06;14.38;;;6.25;;
17347;SDS011;8791;50.876;4.342;2023-07-20T02:47:33;12.35;;;5.93;;
17347;SDS011;8791;50.876;4.342;2023-07-20T02:50:00;17.00;;;6.45;;
17347;SDS011;8791;50.876;4.342;2023-07-20T02:52:27;19.05;;;6.93;;
17347;SDS011;8791;50.876;4.342;2023-07-20T02:54:54;11.13;;;6.55;;
17347;SDS011;8791;50.876;4.342;2023-07-20T02:57:23;15.95;;;6.82;;
17347;SDS011;8791;50.876;4.342;2023-07-20T02:59:50;15.20;;;7.18;;
17347;SDS011;8791;50.876;4.342;2023-07-20T03:02:16;18.80;;;7.15;;
17347;SDS011;8791;50.876;4.342;2023-07-20T03:04:43;17.33;;;7.55;;
17347;SDS011;8791;50.876;4.342;2023-07-20T03:07:10;12.55;;;7.18;;
17347;SDS011;8791;50.876;4.342;2023-07-20T03:09:37;17.35;;;6.93;;
17347;SDS011;8791;50.876;4.342;2023-07-20T03:12:05;13.18;;;7.32;;
17347;SDS011;8791;50.876;4.342;2023-07-20T03:14:34;17.58;;;8.32;;
17347;SDS011;8791;50.876;4.342;2023-07-20T03:17:01;19.75;;;8.20;;
17347;SDS011;8791;50.876;4.342;2023-07-20T03:19:29;21.00;;;7.88;;
17347;SDS011;8791;50.876;4.342;2023-07-20T03:21:56;18.10;;;8.52;;
17347;SDS011;8791;50.876;4.342;2023-07-20T03:24:23;22.55;;;9.27;;
17347;SDS011;8791;50.876;4.342;2023-07-20T03:26:50;21.30;;;9.25;;
17347;SDS011;8791;50.876;4.342;2023-07-20T03:29:17;20.63;;;8.85;;
17347;SDS011;8791;50.876;4.342;2023-07-20T03:31:46;12.63;;;8.48;;
17347;SDS011;8791;50.876;4.342;2023-07-20T03:34:13;17.73;;;8.85;;
17347;SDS011;8791;50.876;4.342;2023-07-20T03:36:40;15.93;;;8.90;;
17347;SDS011;8791;50.876;4.342;2023-07-20T03:39:06;15.45;;;9.07;;
17347;SDS011;8791;50.876;4.342;2023-07-20T03:41:33;19.67;;;9.07;;
17347;SDS011;8791;50.876;4.342;2023-07-20T03:44:02;24.95;;;10.10;;
17347;SDS011;8791;50.876;4.342;2023-07-20T03:46:29;23.25;;;9.13;;
17347;SDS011;8791;50.876;4.342;2023-07-20T03:48:57;21.63;;;9.23;;
17347;SDS011;8791;50.876;4.342;2023-07-20T03:51:24;25.67;;;10.40;;
17347;SDS011;8791;50.876;4.342;2023-07-20T03:53:51;17.67;;;9.60;;
17347;SDS011;8791;50.876;4.342;2023-07-20T03:56:18;19.27;;;9.60;;
17347;SDS011;8791;50.876;4.342;2023-07-20T03:58:44;17.92;;;10.30;;
17347;SDS011;8791;50.876;4.342;2023-07-20T04:01:11;18.35;;;10.27;;
17347;SDS011;8791;50.876;4.342;2023-07-20T04:03:38;18.38;;;9.63;;
17347;SDS011;8791;50.876;4.342;2023-07-20T04:06:07;20.08;;;9.90;;
17347;SDS011;8791;50.876;4.342;2023-07-20T04:08:35;24.83;;;9.60;;
17347;SDS011;8791;50.876;4.342;2023-07-20T04:11:03;20.00;;;9.15;;
17347;SDS011;8791;50.876;4.342;2023-07-20T04:13:30;25.67;;;10.30;;
17347;SDS011;8791;50.876;4.342;2023-07-20T04:15:58;14.82;;;9.68;;
17347;SDS011;8791;50.876;4.342;2023-07-20T04:18:25;25.20;;;10.13;;
17347;SDS011;8791;50.876;4.342;2023-07-20T04:20:52;26.38;;;10.43;;
17347;SDS011;8791;50.876;4.342;2023-07-20T04:23:21;21.63;;;9.93;;
17347;SDS011;8791;50.876;4.342;2023-07-20T04:25:47;22.92;;;10.52;;
17347;SDS011;8791;50.876;4.342;2023-07-20T04:28:17;20.55;;;10.18;;
17347;SDS011;8791;50.876;4.342;2023-07-20T04:30:45;23.48;;;9.65;;
17347;SDS011;8791;50.876;4.342;2023-07-20T04:33:14;24.88;;;9.48;;
17347;SDS011;8791;50.876;4.342;2023-07-20T04:35:45;17.70;;;9.77;;
17347;SDS011;8791;50.876;4.342;2023-07-20T04:38:14;17.10;;;9.93;;
17347;SDS011;8791;50.876;4.342;2023-07-20T04:40:43;16.15;;;10.80;;
17347;SDS011;8791;50.876;4.342;2023-07-20T04:43:11;15.77;;;10.05;;
17347;SDS011;8791;50.876;4.342;2023-07-20T04:45:38;17.83;;;10.10;;
17347;SDS011;8791;50.876;4.342;2023-07-20T04:48:06;17.25;;;10.15;;
17347;SDS011;8791;50.876;4.342;2023-07-20T04:50:36;18.10;;;10.77;;
17347;SDS011;8791;50.876;4.342;2023-07-20T04:53:03;22.75;;;10.55;;
17347;SDS011;8791;50.876;4.342;2023-07-20T04:55:30;19.33;;;10.05;;
17347;SDS011;8791;50.876;4.342;2023-07-20T04:58:00;14.80;;;10.23;;
17347;SDS011;8791;50.876;4.342;2023-07-20T05:00:27;14.98;;;9.77;;
17347;SDS011;8791;50.876;4.342;2023-07-20T05:02:54;19.38;;;10.90;;
17347;SDS011;8791;50.876;4.342;2023-07-20T05:05:21;14.38;;;10.35;;
17347;SDS011;8791;50.876;4.342;2023-07-20T05:07:48;20.15;;;10.25;;
17347;SDS011;8791;50.876;4.342;2023-07-20T05:10:14;21.08;;;10.40;;
17347;SDS011;8791;50.876;4.342;2023-07-20T05:12:41;14.18;;;9.00;;
17347;SDS011;8791;50.876;4.342;2023-07-20T05:15:10;15.57;;;10.13;;
17347;SDS011;8791;50.876;4.342;2023-07-20T05:17:37;25.60;;;10.55;;
17347;SDS011;8791;50.876;4.342;2023-07-20T05:20:05;15.57;;;9.88;;
17347;SDS011;8791;50.876;4.342;2023-07-20T05:22:34;14.32;;;9.77;;
17347;SDS011;8791;50.876;4.342;2023-07-20T05:25:05;17.52;;;9.23;;
17347;SDS011;8791;50.876;4.342;2023-07-20T05:27:33;13.55;;;8.75;;
17347;SDS011;8791;50.876;4.342;2023-07-20T05:30:00;14.60;;;10.63;;
17347;SDS011;8791;50.876;4.342;2023-07-20T05:32:29;16.77;;;9.77;;
17347;SDS011;8791;50.876;4.342;2023-07-20T05:34:56;14.75;;;9.00;;
17347;SDS011;8791;50.876;4.342;2023-07-20T05:37:22;17.08;;;10.13;;
17347;SDS011;8791;50.876;4.342;2023-07-20T05:39:49;19.88;;;9.70;;
17347;SDS011;8791;50.876;4.342;2023-07-20T05:42:16;15.90;;;11.18;;
17347;SDS011;8791;50.876;4.342;2023-07-20T05:44:43;15.63;;;9.32;;
17347;SDS011;8791;50.876;4.342;2023-07-20T05:47:12;20.08;;;9.73;;
17347;SDS011;8791;50.876;4.342;2023-07-20T05:49:42;16.17;;;10.43;;
17347;SDS011;8791;50.876;4.342;2023-07-20T05:52:09;17.88;;;10.48;;
17347;SDS011;8791;50.876;4.342;2023-07-20T05:54:35;16.92;;;10.50;;
17347;SDS011;8791;50.876;4.342;2023-07-20T05:57:03;18.77;;;10.27;;
17347;SDS011;8791;50.876;4.342;2023-07-20T05:59:30;16.63;;;9.68;;
17347;SDS011;8791;50.876;4.342;2023-07-20T06:01:57;13.73;;;10.00;;
17347;SDS011;8791;50.876;4.342;2023-07-20T06:04:24;15.48;;;9.55;;
17347;SDS011;8791;50.876;4.342;2023-07-20T06:06:52;17.80;;;10.02;;
17347;SDS011;8791;50.876;4.342;2023-07-20T06:09:19;14.02;;;8.68;;
17347;SDS011;8791;50.876;4.342;2023-07-20T06:11:48;15.00;;;10.10;;
17347;SDS011;8791;50.876;4.342;2023-07-20T06:14:15;14.52;;;9.43;;
17347;SDS011;8791;50.876;4.342;2023-07-20T06:16:43;15.93;;;9.05;;
17347;SDS011;8791;50.876;4.342;2023-07-20T06:19:10;23.75;;;8.60;;
17347;SDS011;8791;50.876;4.342;2023-07-20T06:21:37;13.70;;;9.48;;
17347;SDS011;8791;50.876;4.342;2023-07-20T06:24:05;17.00;;;8.65;;
17347;SDS011;8791;50.876;4.342;2023-07-20T06:26:32;15.82;;;7.85;;
17347;SDS011;8791;50.876;4.342;2023-07-20T06:29:03;9.55;;;7.10;;
17347;SDS011;8791;50.876;4.342;2023-07-20T06:31:31;7.93;;;6.97;;
17347;SDS011;8791;50.876;4.342;2023-07-20T06:33:58;12.50;;;7.85;;
17347;SDS011;8791;50.876;4.342;2023-07-20T06:36:24;12.90;;;7.45;;
17347;SDS011;8791;50.876;4.342;2023-07-20T06:38:52;12.48;;;7.47;;
17347;SDS011;8791;50.876;4.342;2023-07-20T06:41:20;8.43;;;6.63;;
17347;SDS011;8791;50.876;4.342;2023-07-20T06:43:47;12.90;;;7.13;;
17347;SDS011;8791;50.876;4.342;2023-07-20T06:46:14;8.68;;;6.47;;
17347;SDS011;8791;50.876;4.342;2023-07-20T06:48:41;10.48;;;6.90;;
17347;SDS011;8791;50.876;4.342;2023-07-20T06:51:08;15.43;;;6.45;;
17347;SDS011;8791;50.876;4.342;2023-07-20T06:53:34;7.65;;;6.18;;
17347;SDS011;8791;50.876;4.342;2023-07-20T06:56:01;6.40;;;5.47;;
17347;SDS011;8791;50.876;4.342;2023-07-20T06:58:30;11.48;;;5.57;;
17347;SDS011;8791;50.876;4.342;2023-07-20T07:01:04;5.50;;;4.70;;
17347;SDS011;8791;50.876;4.342;2023-07-20T07:03:32;7.03;;;4.88;;
17347;SDS011;8791;50.876;4.342;2023-07-20T07:05:59;7.43;;;5.15;;
17347;SDS011;8791;50.876;4.342;2023-07-20T07:08:26;7.20;;;5.30;;
17347;SDS011;8791;50.876;4.342;2023-07-20T07:10:53;6.63;;;5.45;;
17347;SDS011;8791;50.876;4.342;2023-07-20T07:13:20;5.63;;;4.20;;
17347;SDS011;8791;50.876;4.342;2023-07-20T07:15:48;9.98;;;4.70;;
17347;SDS011;8791;50.876;4.342;2023-07-20T07:18:15;5.20;;;3.92;;
17347;SDS011;8791;50.876;4.342;2023-07-20T07:20:49;4.13;;;1.80;;
17347;SDS011;8791;50.876;4.342;2023-07-20T07:23:17;4.13;;;2.90;;
17347;SDS011;8791;50.876;4.342;2023-07-20T07:25:44;4.15;;;2.83;;
17347;SDS011;8791;50.876;4.342;2023-07-20T07:28:11;6.78;;;2.67;;
17347;SDS011;8791;50.876;4.342;2023-07-20T07:30:38;3.72;;;2.47;;
17347;SDS011;8791;50.876;4.342;2023-07-20T07:33:06;4.78;;;2.97;;
17347;SDS011;8791;50.876;4.342;2023-07-20T07:35:33;4.53;;;2.85;;
17347;SDS011;8791;50.876;4.342;2023-07-20T07:38:00;6.50;;;2.70;;
17347;SDS011;8791;50.876;4.342;2023-07-20T07:40:27;4.88;;;2.85;;
17347;SDS011;8791;50.876;4.342;2023-07-20T07:42:54;5.32;;;1.70;;
17347;SDS011;8791;50.876;4.342;2023-07-20T07:45:21;3.13;;;2.15;;
17347;SDS011;8791;50.876;4.342;2023-07-20T07:47:47;3.63;;;1.90;;
17347;SDS011;8791;50.876;4.342;2023-07-20T07:50:16;4.10;;;2.20;;
17347;SDS011;8791;50.876;4.342;2023-07-20T07:52:43;2.50;;;2.10;;
17347;SDS011;8791;50.876;4.342;2023-07-20T07:55:09;2.53;;;1.95;;
17347;SDS011;8791;50.876;4.342;2023-07-20T07:57:36;1.83;;;1.52;;
17347;SDS011;8791;50.876;4.342;2023-07-20T08:00:04;2.90;;;1.45;;
17347;SDS011;8791;50.876;4.342;2023-07-20T08:02:35;2.05;;;1.52;;
17347;SDS011;8791;50.876;4.342;2023-07-20T08:05:02;3.53;;;1.65;;
17347;SDS011;8791;50.876;4.342;2023-07-20T08:07:31;2.20;;;1.30;;
17347;SDS011;8791;50.876;4.342;2023-07-20T08:09:58;2.42;;;1.52;;
17347;SDS011;8791;50.876;4.342;2023-07-20T08:12:25;3.13;;;1.60;;
17347;SDS011;8791;50.876;4.342;2023-07-20T08:14:53;2.25;;;1.60;;
17347;SDS011;8791;50.876;4.342;2023-07-20T08:17:19;3.55;;;1.50;;
17347;SDS011;8791;50.876;4.342;2023-07-20T08:19:46;2.17;;;1.13;;
17347;SDS011;8791;50.876;4.342;2023-07-20T08:22:13;0.90;;;0.80;;
17347;SDS011;8791;50.876;4.342;2023-07-20T08:24:42;2.03;;;1.10;;
17347;SDS011;8791;50.876;4.342;2023-07-20T08:27:09;2.70;;;0.90;;
17347;SDS011;8791;50.876;4.342;2023-07-20T08:29:36;1.17;;;1.08;;
17347;SDS011;8791;50.876;4.342;2023-07-20T08:32:05;1.23;;;1.13;;
17347;SDS011;8791;50.876;4.342;2023-07-20T08:34:32;1.20;;;1.10;;
17347;SDS011;8791;50.876;4.342;2023-07-20T08:37:24;1.77;;;1.13;;
17347;SDS011;8791;50.876;4.342;2023-07-20T08:39:52;2.45;;;1.35;;
17347;SDS011;8791;50.876;4.342;2023-07-20T08:42:19;1.25;;;1.10;;
17347;SDS011;8791;50.876;4.342;2023-07-20T08:44:48;2.35;;;1.00;;
17347;SDS011;8791;50.876;4.342;2023-07-20T08:47:18;2.45;;;1.20;;
17347;SDS011;8791;50.876;4.342;2023-07-20T08:49:48;4.10;;;1.27;;
17347;SDS011;8791;50.876;4.342;2023-07-20T08:52:15;4.78;;;1.73;;
17347;SDS011;8791;50.876;4.342;2023-07-20T08:54:42;1.08;;;0.98;;
17347;SDS011;8791;50.876;4.342;2023-07-20T08:57:11;0.93;;;0.90;;
17347;SDS011;8791;50.876;4.342;2023-07-20T08:59:40;1.95;;;1.08;;
17347;SDS011;8791;50.876;4.342;2023-07-20T09:02:07;1.73;;;1.00;;
17347;SDS011;8791;50.876;4.342;2023-07-20T09:04:38;2.65;;;0.90;;
17347;SDS011;8791;50.876;4.342;2023-07-20T09:07:05;1.08;;;1.00;;
17347;SDS011;8791;50.876;4.342;2023-07-20T09:09:33;3.03;;;1.00;;
17347;SDS011;8791;50.876;4.342;2023-07-20T09:12:07;4.50;;;1.10;;
17347;SDS011;8791;50.876;4.342;2023-07-20T09:14:43;2.65;;;1.05;;
17347;SDS011;8791;50.876;4.342;2023-07-20T09:17:12;1.20;;;1.10;;
17347;SDS011;8791;50.876;4.342;2023-07-20T09:19:45;0.98;;;0.95;;
17347;SDS011;8791;50.876;4.342;2023-07-20T09:22:13;1.08;;;1.00;;
17347;SDS011;8791;50.876;4.342;2023-07-20T09:24:40;3.53;;;0.95;;
17347;SDS011;8791;50.876;4.342;2023-07-20T09:27:07;4.70;;;1.00;;
17347;SDS011;8791;50.876;4.342;2023-07-20T09:29:40;2.25;;;1.33;;
17347;SDS011;8791;50.876;4.342;2023-07-20T09:32:17;3.42;;;1.00;;
17347;SDS011;8791;50.876;4.342;2023-07-20T09:34:46;4.28;;;1.45;;
17347;SDS011;8791;50.876;4.342;2023-07-20T09:37:13;1.45;;;1.00;;
17347;SDS011;8791;50.876;4.342;2023-07-20T09:39:43;1.67;;;1.00;;
17347;SDS011;8791;50.876;4.342;2023-07-20T09:42:11;2.85;;;1.20;;
17347;SDS011;8791;50.876;4.342;2023-07-20T09:44:40;3.72;;;1.20;;
17347;SDS011;8791;50.876;4.342;2023-07-20T09:47:09;1.13;;;0.93;;
17347;SDS011;8791;50.876;4.342;2023-07-20T09:49:38;1.75;;;1.08;;
17347;SDS011;8791;50.876;4.342;2023-07-20T09:52:07;1.88;;;0.80;;
17347;SDS011;8791;50.876;4.342;2023-07-20T09:54:35;1.27;;;0.77;;
17347;SDS011;8791;50.876;4.342;2023-07-20T09:57:04;1.00;;;0.90;;
17347;SDS011;8791;50.876;4.342;2023-07-20T09:59:34;3.63;;;0.95;;
17347;SDS011;8791;50.876;4.342;2023-07-20T10:02:04;1.25;;;1.15;;
17347;SDS011;8791;50.876;4.342;2023-07-20T10:04:40;3.25;;;1.38;;
17347;SDS011;8791;50.876;4.342;2023-07-20T10:07:09;1.88;;;1.00;;
17347;SDS011;8791;50.876;4.342;2023-07-20T10:09:38;0.85;;;0.85;;
17347;SDS011;8791;50.876;4.342;2023-07-20T10:12:07;2.30;;;0.93;;
17347;SDS011;8791;50.876;4.342;2023-07-20T10:14:35;1.45;;;0.90;;
17347;SDS011;8791;50.876;4.342;2023-07-20T10:17:08;4.57;;;0.95;;
17347;SDS011;8791;50.876;4.342;2023-07-20T10:19:41;2.15;;;0.80;;
17347;SDS011;8791;50.876;4.342;2023-07-20T10:22:11;1.27;;;0.80;;
17347;SDS011;8791;50.876;4.342;2023-07-20T10:24:40;2.72;;;1.00;;
17347;SDS011;8791;50.876;4.342;2023-07-20T10:27:12;2.90;;;1.00;;
17347;SDS011;8791;50.876;4.342;2023-07-20T10:29:39;4.53;;;0.80;;
17347;SDS011;8791;50.876;4.342;2023-07-20T10:32:08;2.20;;;0.85;;
17347;SDS011;8791;50.876;4.342;2023-07-20T10:34:36;1.35;;;1.10;;
17347;SDS011;8791;50.876;4.342;2023-07-20T10:37:03;1.75;;;1.25;;
17347;SDS011;8791;50.876;4.342;2023-07-20T10:39:31;0.95;;;0.80;;
17347;SDS011;8791;50.876;4.342;2023-07-20T10:42:02;1.25;;;1.15;;
17347;SDS011;8791;50.876;4.342;2023-07-20T10:44:32;1.08;;;1.00;;
17347;SDS011;8791;50.876;4.342;2023-07-20T10:47:00;1.17;;;1.00;;
17347;SDS011;8791;50.876;4.342;2023-07-20T10:49:29;2.92;;;1.00;;
17347;SDS011;8791;50.876;4.342;2023-07-20T10:51:58;1.30;;;0.90;;
17347;SDS011;8791;50.876;4.342;2023-07-20T10:54:33;6.75;;;1.20;;
17347;SDS011;8791;50.876;4.342;2023-07-20T10:59:50;3.47;;;1.27;;
17347;SDS011;8791;50.876;4.342;2023-07-20T11:02:17;1.58;;;0.90;;
17347;SDS011;8791;50.876;4.342;2023-07-20T11:04:47;1.83;;;1.08;;
17347;SDS011;8791;50.876;4.342;2023-07-20T11:07:17;3.20;;;1.60;;
17347;SDS011;8791;50.876;4.342;2023-07-20T11:09:44;3.83;;;1.17;;
17347;SDS011;8791;50.876;4.342;2023-07-20T11:12:12;1.48;;;1.15;;
17347;SDS011;8791;50.876;4.342;2023-07-20T11:14:42;2.08;;;1.00;;
17347;SDS011;8791;50.876;4.342;2023-07-20T11:17:19;2.92;;;1.50;;
17347;SDS011;8791;50.876;4.342;2023-07-20T11:19:49;3.92;;;1.10;;
17347;SDS011;8791;50.876;4.342;2023-07-20T11:22:16;1.90;;;0.90;;
17347;SDS011;8791;50.876;4.342;2023-07-20T11:24:43;1.40;;;0.88;;
17347;SDS011;8791;50.876;4.342;2023-07-20T11:27:10;2.03;;;1.10;;
17347;SDS011;8791;50.876;4.342;2023-07-20T11:29:37;1.25;;;1.15;;
17347;SDS011;8791;50.876;4.342;2023-07-20T11:32:04;1.30;;;0.90;;
17347;SDS011;8791;50.876;4.342;2023-07-20T11:34:32;2.47;;;0.98;;
17347;SDS011;8791;50.876;4.342;2023-07-20T11:37:01;1.17;;;1.08;;
17347;SDS011;8791;50.876;4.342;2023-07-20T11:39:28;1.90;;;1.10;;
17347;SDS011;8791;50.876;4.342;2023-07-20T11:41:56;1.30;;;1.20;;
17347;SDS011;8791;50.876;4.342;2023-07-20T11:44:23;3.55;;;1.17;;
17347;SDS011;8791;50.876;4.342;2023-07-20T11:46:59;1.40;;;1.30;;
17347;SDS011;8791;50.876;4.342;2023-07-20T11:49:28;1.40;;;1.30;;
17347;SDS011;8791;50.876;4.342;2023-07-20T11:51:55;1.50;;;1.38;;
17347;SDS011;8791;50.876;4.342;2023-07-20T11:54:24;1.75;;;1.40;;
17347;SDS011;8791;50.876;4.342;2023-07-20T11:56:53;1.20;;;1.10;;
17347;SDS011;8791;50.876;4.342;2023-07-20T11:59:20;4.60;;;1.50;;
17347;SDS011;8791;50.876;4.342;2023-07-20T12:01:47;2.33;;;1.20;;
17347;SDS011;8791;50.876;4.342;2023-07-20T12:04:14;2.15;;;1.30;;
17347;SDS011;8791;50.876;4.342;2023-07-20T12:06:41;1.40;;;1.30;;
17347;SDS011;8791;50.876;4.342;2023-07-20T12:09:12;8.15;;;1.52;;
17347;SDS011;8791;50.876;4.342;2023-07-20T12:11:42;2.00;;;1.48;;
17347;SDS011;8791;50.876;4.342;2023-07-20T12:14:10;2.97;;;1.65;;
17347;SDS011;8791;50.876;4.342;2023-07-20T12:16:37;3.17;;;1.70;;
17347;SDS011;8791;50.876;4.342;2023-07-20T12:19:07;1.52;;;1.42;;
17347;SDS011;8791;50.876;4.342;2023-07-20T12:21:59;1.33;;;1.20;;
17347;SDS011;8791;50.876;4.342;2023-07-20T12:24:26;3.72;;;1.30;;
17347;SDS011;8791;50.876;4.342;2023-07-20T12:26:57;6.53;;;1.30;;
17347;SDS011;8791;50.876;4.342;2023-07-20T12:29:24;1.30;;;1.20;;
17347;SDS011;8791;50.876;4.342;2023-07-20T12:31:51;4.28;;;1.23;;
17347;SDS011;8791;50.876;4.342;2023-07-20T12:34:18;2.78;;;1.33;;
17347;SDS011;8791;50.876;4.342;2023-07-20T12:36:45;1.52;;;1.23;;
17347;SDS011;8791;50.876;4.342;2023-07-20T12:39:12;1.15;;;1.05;;
17347;SDS011;8791;50.876;4.342;2023-07-20T12:41:39;1.13;;;1.02;;
17347;SDS011;8791;50.876;4.342;2023-07-20T12:44:07;2.38;;;1.45;;
17347;SDS011;8791;50.876;4.342;2023-07-20T12:46:34;3.72;;;1.33;;
17347;SDS011;8791;50.876;4.342;2023-07-20T12:49:02;1.30;;;1.13;;
17347;SDS011;8791;50.876;4.342;2023-07-20T12:51:29;2.08;;;1.38;;
17347;SDS011;8791;50.876;4.342;2023-07-20T12:53:56;2.67;;;1.60;;
17347;SDS011;8791;50.876;4.342;2023-07-20T12:56:22;4.55;;;1.60;;
17347;SDS011;8791;50.876;4.342;2023-07-20T12:58:49;2.97;;;1.48;;
17347;SDS011;8791;50.876;4.342;2023-07-20T13:01:18;1.48;;;1.20;;
17347;SDS011;8791;50.876;4.342;2023-07-20T13:03:45;5.63;;;1.60;;
17347;SDS011;8791;50.876;4.342;2023-07-20T13:06:11;2.60;;;1.77;;
17347;SDS011;8791;50.876;4.342;2023-07-20T13:08:39;4.95;;;1.67;;
17347;SDS011;8791;50.876;4.342;2023-07-20T13:11:06;5.30;;;1.60;;
17347;SDS011;8791;50.876;4.342;2023-07-20T13:13:32;1.83;;;1.40;;
17347;SDS011;8791;50.876;4.342;2023-07-20T13:15:59;1.88;;;1.30;;
17347;SDS011;8791;50.876;4.342;2023-07-20T13:18:28;1.60;;;1.50;;
17347;SDS011;8791;50.876;4.342;2023-07-20T13:20:55;2.95;;;1.55;;
17347;SDS011;8791;50.876;4.342;2023-07-20T13:23:22;3.78;;;1.63;;
17347;SDS011;8791;50.876;4.342;2023-07-20T13:25:48;4.93;;;1.58;;
17347;SDS011;8791;50.876;4.342;2023-07-20T13:28:15;3.00;;;1.63;;
17347;SDS011;8791;50.876;4.342;2023-07-20T13:30:42;4.22;;;1.52;;
17347;SDS011;8791;50.876;4.342;2023-07-20T13:33:11;2.75;;;1.40;;
17347;SDS011;8791;50.876;4.342;2023-07-20T13:35:41;3.13;;;1.52;;
17347;SDS011;8791;50.876;4.342;2023-07-20T13:38:11;3.40;;;1.92;;
17347;SDS011;8791;50.876;4.342;2023-07-20T13:40:38;5.18;;;1.80;;
17347;SDS011;8791;50.876;4.342;2023-07-20T13:43:05;4.05;;;2.00;;
17347;SDS011;8791;50.876;4.342;2023-07-20T13:45:32;2.22;;;1.88;;
17347;SDS011;8791;50.876;4.342;2023-07-20T13:47:59;9.13;;;1.60;;
17347;SDS011;8791;50.876;4.342;2023-07-20T13:50:26;4.00;;;1.70;;
17347;SDS011;8791;50.876;4.342;2023-07-20T13:52:55;3.67;;;1.92;;
17347;SDS011;8791;50.876;4.342;2023-07-20T13:55:31;2.35;;;2.10;;
17347;SDS011;8791;50.876;4.342;2023-07-20T13:58:01;3.40;;;2.05;;
17347;SDS011;8791;50.876;4.342;2023-07-20T14:00:29;2.45;;;2.25;;
17347;SDS011;8791;50.876;4.342;2023-07-20T14:02:58;3.15;;;1.73;;
17347;SDS011;8791;50.876;4.342;2023-07-20T14:05:25;3.42;;;1.92;;
17347;SDS011;8791;50.876;4.342;2023-07-20T14:07:54;2.72;;;1.85;;
17347;SDS011;8791;50.876;4.342;2023-07-20T14:10:21;6.07;;;2.50;;
17347;SDS011;8791;50.876;4.342;2023-07-20T14:12:48;1.98;;;1.88;;
17347;SDS011;8791;50.876;4.342;2023-07-20T14:15:16;2.85;;;2.10;;
17347;SDS011;8791;50.876;4.342;2023-07-20T14:17:53;3.38;;;1.50;;
17347;SDS011;8791;50.876;4.342;2023-07-20T14:20:20;1.75;;;1.50;;
17347;SDS011;8791;50.876;4.342;2023-07-20T14:22:47;2.25;;;1.85;;
17347;SDS011;8791;50.876;4.342;2023-07-20T14:25:16;2.75;;;1.48;;
17347;SDS011;8791;50.876;4.342;2023-07-20T14:27:43;4.90;;;1.30;;
17347;SDS011;8791;50.876;4.342;2023-07-20T14:30:10;3.83;;;1.77;;
17347;SDS011;8791;50.876;4.342;2023-07-20T14:32:38;2.78;;;1.83;;
17347;SDS011;8791;50.876;4.342;2023-07-20T14:35:07;2.42;;;1.65;;
17347;SDS011;8791;50.876;4.342;2023-07-20T14:37:34;2.72;;;1.60;;
17347;SDS011;8791;50.876;4.342;2023-07-20T14:40:02;3.03;;;1.42;;
17347;SDS011;8791;50.876;4.342;2023-07-20T14:42:31;3.35;;;1.15;;
17347;SDS011;8791;50.876;4.342;2023-07-20T14:44:58;3.38;;;1.63;;
17347;SDS011;8791;50.876;4.342;2023-07-20T14:47:33;2.15;;;1.27;;
17347;SDS011;8791;50.876;4.342;2023-07-20T14:50:00;6.95;;;1.35;;
17347;SDS011;8791;50.876;4.342;2023-07-20T14:52:28;2.55;;;1.40;;
17347;SDS011;8791;50.876;4.342;2023-07-20T14:54:55;1.67;;;1.40;;
17347;SDS011;8791;50.876;4.342;2023-07-20T14:57:22;1.63;;;1.30;;
17347;SDS011;8791;50.876;4.342;2023-07-20T14:59:50;1.13;;;1.08;;
17347;SDS011;8791;50.876;4.342;2023-07-20T15:02:17;3.25;;;1.95;;
17347;SDS011;8791;50.876;4.342;2023-07-20T15:04:51;1.70;;;1.35;;